LFAQ

Albert-Bray Airport

Airport
ICAO code
LFAQ
Summary
ICAO Region
EUR
ICAO Territory
Location

, Picardie

Serving
Albert
Elevation
364 ft
Coordinates
49° 58' 18" N , 2° 41' 52" E
Metar
Observation
LFAQ 091830Z AUTO 00000KT 2000 0900 R27/2800D BCFG BKN010 OVC014 M00/M00 Q1006
Station
BRAY
Date/Time
2022-12-09 18:30:00
Wind direction
Wind speed
00 kts
Lowest cloud amount
broken clouds
Temperature
-0°C
Dew point
-0°C
Humidity
100%
QNH
1006 hPa
Weather condition
n/a

Runways

Designator Length Width Surface Rops
9/27 1170 25 ASP No/No

Airport map

Aerial View

SKYbrary Partners:

Safety knowledge contributed by: